createdAt,value
2022-08-05T00:00:46.503Z,87.70
2022-08-05T00:03:18.394Z,88.10
2022-08-05T00:06:04.960Z,89.00
2022-08-05T00:08:36.176Z,88.80
2022-08-05T00:11:27.980Z,88.70
2022-08-05T00:13:55.943Z,89.20
2022-08-05T00:16:35.452Z,89.20
2022-08-05T00:19:03.959Z,89.20
2022-08-05T00:21:35.788Z,89.40
2022-08-05T00:24:11.123Z,88.90
2022-08-05T00:26:50.536Z,89.00
2022-08-05T00:29:22.630Z,90.00
2022-08-05T00:32:12.634Z,89.10
2022-08-05T00:35:03.826Z,88.90
2022-08-05T00:37:50.482Z,89.10
2022-08-05T00:40:26.622Z,88.80
2022-08-05T00:42:57.791Z,88.90
2022-08-05T00:45:38.154Z,88.70
2022-08-05T00:48:10.289Z,89.60
2022-08-05T00:50:38.979Z,89.00
2022-08-05T00:54:00.680Z,88.90
2022-08-05T00:55:57.997Z,89.00
2022-08-05T00:58:27.430Z,88.50
2022-08-05T01:00:55.946Z,88.30
2022-08-05T01:03:30.956Z,88.90
2022-08-05T01:06:01.843Z,88.90
2022-08-05T01:08:43.104Z,88.70
2022-08-05T01:11:22.581Z,88.80
2022-08-05T01:14:03.245Z,88.80
2022-08-05T01:16:39.129Z,88.90
2022-08-05T01:19:20.868Z,90.00
2022-08-05T01:22:15.621Z,90.00
2022-08-05T01:25:18.120Z,88.30
2022-08-05T01:28:23.862Z,88.40
2022-08-05T01:30:55.870Z,88.40
2022-08-05T01:33:29.497Z,88.90
2022-08-05T01:36:13.041Z,89.20
2022-08-05T01:38:48.597Z,89.50
2022-08-05T01:41:21.744Z,89.40
2022-08-05T01:43:53.367Z,89.90
2022-08-05T01:46:41.896Z,90.60
2022-08-05T01:49:23.986Z,90.50
2022-08-05T01:51:59.715Z,90.30
2022-08-05T01:54:46.272Z,90.60
2022-08-05T01:58:12.660Z,90.70
2022-08-05T02:00:11.607Z,91.10
2022-08-05T02:02:46.447Z,91.50
2022-08-05T02:05:28.516Z,91.50
2022-08-05T02:08:01.324Z,91.30
2022-08-05T02:10:35.599Z,91.40
2022-08-05T02:13:15.908Z,91.30
2022-08-05T02:15:50.702Z,91.20
2022-08-05T02:18:32.692Z,91.20
2022-08-05T02:21:14.795Z,91.20
2022-08-05T02:23:53.198Z,91.30
2022-08-05T02:26:26.659Z,91.40
2022-08-05T02:28:58.155Z,91.80
2022-08-05T02:31:36.611Z,92.20
2022-08-05T02:34:10.088Z,92.00
2022-08-05T02:36:43.545Z,91.80
2022-08-05T02:39:13.174Z,91.60
2022-08-05T02:42:00.748Z,91.70
2022-08-05T02:44:31.075Z,91.70
2022-08-05T02:47:01.351Z,92.00
2022-08-05T02:49:35.842Z,91.90
2022-08-05T02:52:06.772Z,92.00
2022-08-05T02:54:37.586Z,92.10
2022-08-05T02:58:10.418Z,92.00
2022-08-05T03:00:01.324Z,91.90
2022-08-05T03:02:35.964Z,91.80
2022-08-05T03:05:06.033Z,91.80
2022-08-05T03:08:00.960Z,91.80
2022-08-05T03:10:25.494Z,91.40
2022-08-05T03:12:55.001Z,91.60
2022-08-05T03:15:24.192Z,91.90
2022-08-05T03:17:56.179Z,92.20
2022-08-05T03:20:26.327Z,92.50
2022-08-05T03:22:57.962Z,93.00
2022-08-05T03:25:33.343Z,93.00
2022-08-05T03:28:18.849Z,92.90
2022-08-05T03:30:50.961Z,92.90
2022-08-05T03:33:25.136Z,92.90
2022-08-05T03:36:13.433Z,93.00
2022-08-05T03:38:42.879Z,93.10
2022-08-05T03:41:20.673Z,93.30
2022-08-05T03:44:08.167Z,93.40
2022-08-05T03:46:38.787Z,93.60
2022-08-05T03:49:14.925Z,93.80
2022-08-05T03:52:38.330Z,93.90
2022-08-05T03:55:53.957Z,93.80
2022-08-05T03:57:41.922Z,93.70
2022-08-05T04:00:15.587Z,93.90
2022-08-05T04:02:58.629Z,93.70
2022-08-05T04:05:33.425Z,93.60
2022-08-05T04:08:05.683Z,93.60
2022-08-05T04:10:44.217Z,93.80
2022-08-05T04:13:13.141Z,93.90
2022-08-05T04:16:02.774Z,93.90
2022-08-05T04:18:30.173Z,93.80
2022-08-05T04:20:59.970Z,93.90
2022-08-05T04:24:05.396Z,93.90
2022-08-05T04:26:17.603Z,93.80
2022-08-05T04:28:51.064Z,93.60
2022-08-05T04:31:20.341Z,93.70
2022-08-05T04:34:17.429Z,93.40
2022-08-05T04:36:44.874Z,93.70
2022-08-05T04:39:14.970Z,93.70
2022-08-05T04:41:43.066Z,93.90
2022-08-05T04:44:13.706Z,93.90
2022-08-05T04:46:41.807Z,94.20
2022-08-05T04:49:15.223Z,94.40
2022-08-05T04:51:45.569Z,94.30
2022-08-05T04:54:14.891Z,94.20
2022-08-05T04:56:43.660Z,94.50
2022-08-05T04:59:21.806Z,94.50
2022-08-05T05:02:08.387Z,94.60
2022-08-05T05:04:44.044Z,94.30
2022-08-05T05:07:18.163Z,94.30
2022-08-05T05:09:46.466Z,94.40
2022-08-05T05:12:15.050Z,94.00
2022-08-05T05:14:49.509Z,94.00
2022-08-05T05:17:23.812Z,94.00
2022-08-05T05:19:55.018Z,93.90
2022-08-05T05:22:26.904Z,93.70
2022-08-05T05:24:58.988Z,93.60
2022-08-05T05:27:41.487Z,93.70
2022-08-05T05:30:29.077Z,93.50
2022-08-05T05:33:00.723Z,93.20
2022-08-05T05:35:31.614Z,93.30
2022-08-05T05:38:09.138Z,93.30
2022-08-05T05:40:48.122Z,93.00
2022-08-05T05:43:28.128Z,93.00
2022-08-05T05:46:12.243Z,92.50
2022-08-05T05:48:45.834Z,92.50
2022-08-05T05:51:20.025Z,92.20
2022-08-05T05:53:58.099Z,92.20
2022-08-05T05:56:34.552Z,91.70
2022-08-05T05:59:05.834Z,91.80
2022-08-05T06:01:37.495Z,91.30
2022-08-05T06:04:08.256Z,91.30
2022-08-05T06:06:41.581Z,91.30
2022-08-05T06:09:17.419Z,91.10
2022-08-05T06:12:01.696Z,90.70
2022-08-05T06:14:31.859Z,91.00
2022-08-05T06:17:02.216Z,90.10
2022-08-05T06:19:56.958Z,89.00
2022-08-05T06:22:29.570Z,87.50
2022-08-05T06:24:59.253Z,87.10
2022-08-05T06:28:10.624Z,86.90
2022-08-05T06:30:19.957Z,85.80
2022-08-05T06:32:50.537Z,86.30
2022-08-05T06:36:04.110Z,85.40
2022-08-05T06:38:11.242Z,83.90
2022-08-05T06:40:44.272Z,82.20
2022-08-05T06:43:51.599Z,81.60
2022-08-05T06:46:03.950Z,81.30
2022-08-05T06:48:55.527Z,81.50
2022-08-05T06:51:30.245Z,79.30
2022-08-05T06:53:59.807Z,79.10
2022-08-05T06:56:29.892Z,78.30
2022-08-05T06:59:01.448Z,77.10
2022-08-05T07:01:32.201Z,76.10
2022-08-05T07:04:01.295Z,74.20
2022-08-05T07:06:32.014Z,72.90
2022-08-05T07:09:03.750Z,73.00
2022-08-05T07:11:37.063Z,74.70
2022-08-05T07:14:30.093Z,74.70
2022-08-05T07:17:58.332Z,74.50
2022-08-05T07:20:31.188Z,72.90
2022-08-05T07:22:42.062Z,72.90
2022-08-05T07:25:54.416Z,73.60
2022-08-05T07:28:06.046Z,73.80
2022-08-05T07:30:39.934Z,73.70
2022-08-05T07:33:15.661Z,72.20
2022-08-05T07:36:04.656Z,72.40
2022-08-05T07:38:42.901Z,72.00
2022-08-05T07:42:07.697Z,72.80
2022-08-05T07:44:03.932Z,73.40
2022-08-05T07:46:33.804Z,72.80
2022-08-05T07:49:05.819Z,72.10
2022-08-05T07:51:37.360Z,73.00
2022-08-05T07:54:11.422Z,71.90
2022-08-05T07:57:14.603Z,73.20
2022-08-05T07:59:38.860Z,73.60
2022-08-05T08:02:15.492Z,72.30
2022-08-05T08:04:46.280Z,71.60
2022-08-05T08:07:15.321Z,72.30
2022-08-05T08:09:43.832Z,72.30
2022-08-05T08:12:36.960Z,71.30
2022-08-05T08:15:04.487Z,71.50
2022-08-05T08:17:33.332Z,71.80
2022-08-05T08:20:21.052Z,72.20
2022-08-05T08:22:54.207Z,70.50
2022-08-05T08:25:27.030Z,71.50
2022-08-05T08:28:18.057Z,72.20
2022-08-05T08:30:49.975Z,71.20
2022-08-05T08:33:19.194Z,72.90
2022-08-05T08:35:52.883Z,71.30
2022-08-05T08:38:36.166Z,71.20
2022-08-05T08:41:08.619Z,71.10
2022-08-05T08:45:18.291Z,71.70
2022-08-05T08:46:30.846Z,72.20
2022-08-05T08:49:09.574Z,73.20
2022-08-05T08:52:04.407Z,70.70
2022-08-05T08:54:36.688Z,69.40
2022-08-05T08:57:11.272Z,69.70
2022-08-05T08:59:41.702Z,70.30
2022-08-05T09:02:18.945Z,71.40
2022-08-05T09:04:58.118Z,69.60
2022-08-05T09:07:40.043Z,69.80
2022-08-05T09:10:27.215Z,69.60
2022-08-05T09:13:05.012Z,68.00
2022-08-05T09:15:37.152Z,67.20
2022-08-05T09:18:09.341Z,69.30
2022-08-05T09:20:38.330Z,67.70
2022-08-05T09:23:19.982Z,68.00
2022-08-05T09:26:02.518Z,68.20
2022-08-05T09:28:34.321Z,67.50
2022-08-05T09:31:22.060Z,69.50
2022-08-05T09:33:58.563Z,67.60
2022-08-05T09:36:53.933Z,67.00
2022-08-05T09:39:27.522Z,66.40
2022-08-05T09:42:08.007Z,66.70
2022-08-05T09:44:38.579Z,66.40
2022-08-05T09:47:15.856Z,68.00
2022-08-05T09:50:01.632Z,68.10
2022-08-05T09:52:33.031Z,67.40
2022-08-05T09:55:55.313Z,66.10
2022-08-05T09:57:54.805Z,66.00
2022-08-05T10:00:27.800Z,66.50
2022-08-05T10:02:59.158Z,64.40
2022-08-05T10:05:32.672Z,63.10
2022-08-05T10:08:36.962Z,62.30
2022-08-05T10:10:54.310Z,61.70
2022-08-05T10:13:31.724Z,60.20
2022-08-05T10:16:32.082Z,59.70
2022-08-05T10:19:09.477Z,59.60
2022-08-05T10:21:45.569Z,62.70
2022-08-05T10:24:19.552Z,59.50
2022-08-05T10:26:54.881Z,60.00
2022-08-05T10:31:20.141Z,59.40
2022-08-05T10:32:59.746Z,59.10
2022-08-05T10:35:11.733Z,59.20
2022-08-05T10:37:45.197Z,60.70
2022-08-05T10:40:27.728Z,61.30
2022-08-05T10:43:11.114Z,60.80
2022-08-05T10:46:06.179Z,59.40
2022-08-05T10:48:52.646Z,59.20
2022-08-05T10:51:29.242Z,60.80
2022-08-05T10:54:23.146Z,59.50
2022-08-05T10:56:57.568Z,59.60
2022-08-05T11:00:04.250Z,58.80
2022-08-05T11:02:37.727Z,57.70
2022-08-05T11:05:11.451Z,58.80
2022-08-05T11:08:17.065Z,56.30
2022-08-05T11:11:44.310Z,56.90
2022-08-05T11:15:00.860Z,56.50
2022-08-05T11:17:57.209Z,57.00
2022-08-05T11:20:41.625Z,59.20
2022-08-05T11:24:05.660Z,57.20
2022-08-05T11:26:29.061Z,57.20
2022-08-05T11:29:12.788Z,56.50
2022-08-05T11:31:57.973Z,56.20
2022-08-05T11:34:47.532Z,57.30
2022-08-05T11:38:28.525Z,54.80
2022-08-05T11:41:12.765Z,54.00
2022-08-05T11:44:05.153Z,54.40
2022-08-05T11:47:09.252Z,55.00
2022-08-05T11:49:26.981Z,56.00
2022-08-05T11:51:57.541Z,55.80
2022-08-05T11:54:33.260Z,55.10
2022-08-05T11:57:08.325Z,56.20
2022-08-05T11:59:49.657Z,53.50
2022-08-05T12:02:31.548Z,53.40
2022-08-05T12:05:08.186Z,53.50
2022-08-05T12:08:07.982Z,53.90
2022-08-05T12:10:45.965Z,53.20
2022-08-05T12:13:18.842Z,52.80
2022-08-05T12:16:04.827Z,52.30
2022-08-05T12:18:49.384Z,54.40
2022-08-05T12:21:24.914Z,52.80
2022-08-05T12:24:00.063Z,52.90
2022-08-05T12:26:36.276Z,53.80
2022-08-05T12:29:09.748Z,52.10
2022-08-05T12:31:49.902Z,51.50
2022-08-05T12:34:28.221Z,51.60
2022-08-05T12:36:57.999Z,52.20
2022-08-05T12:39:34.752Z,54.00
2022-08-05T12:42:09.943Z,52.50
2022-08-05T12:44:44.530Z,52.30
2022-08-05T12:47:17.175Z,52.10
2022-08-05T12:50:02.945Z,53.70
2022-08-05T12:52:39.624Z,52.60
2022-08-05T12:55:23.300Z,52.70
2022-08-05T12:58:50.934Z,52.10
2022-08-05T13:02:02.060Z,52.40
2022-08-05T13:03:33.477Z,53.60
2022-08-05T13:06:03.302Z,52.60
2022-08-05T13:08:32.943Z,53.00
2022-08-05T13:11:02.036Z,54.00
2022-08-05T13:14:06.643Z,52.20
2022-08-05T13:16:25.023Z,52.50
2022-08-05T13:18:55.162Z,51.90
2022-08-05T13:21:38.067Z,52.50
2022-08-05T13:24:27.636Z,52.10
2022-08-05T13:27:05.809Z,51.70
2022-08-05T13:29:39.359Z,51.60
2022-08-05T13:32:32.994Z,51.40
2022-08-05T13:35:02.341Z,52.30
2022-08-05T13:37:34.864Z,52.90
2022-08-05T13:40:14.449Z,52.20
2022-08-05T13:42:45.194Z,52.90
2022-08-05T13:45:14.300Z,52.80
2022-08-05T13:48:08.854Z,53.70
2022-08-05T13:50:37.422Z,54.00
2022-08-05T13:53:15.588Z,53.60
2022-08-05T13:55:49.273Z,51.40
2022-08-05T13:58:30.899Z,52.70
2022-08-05T14:00:59.747Z,52.00
2022-08-05T14:03:28.649Z,51.40
2022-08-05T14:06:25.312Z,51.50
2022-08-05T14:08:47.210Z,50.60
2022-08-05T14:11:20.926Z,52.40
2022-08-05T14:13:54.927Z,51.20
2022-08-05T14:16:25.875Z,51.60
2022-08-05T14:18:54.053Z,52.00
2022-08-05T14:22:10.278Z,50.90
2022-08-05T14:24:12.315Z,51.00
2022-08-05T14:26:51.504Z,51.20
2022-08-05T14:29:28.604Z,50.30
2022-08-05T14:32:11.583Z,51.10
2022-08-05T14:34:42.319Z,50.10
2022-08-05T14:37:13.403Z,51.40
2022-08-05T14:39:49.934Z,50.20
2022-08-05T14:42:25.109Z,50.40
2022-08-05T14:44:54.018Z,50.90
2022-08-05T14:48:03.318Z,49.50
2022-08-05T14:50:17.567Z,51.60
2022-08-05T14:52:57.792Z,50.90
2022-08-05T14:55:39.326Z,50.30
2022-08-05T14:58:11.030Z,50.20
2022-08-05T15:00:59.787Z,51.20
2022-08-05T15:03:33.010Z,50.70
2022-08-05T15:06:07.803Z,51.10
2022-08-05T15:08:59.145Z,51.20
2022-08-05T15:11:51.095Z,51.30
2022-08-05T15:14:35.114Z,50.70
2022-08-05T15:17:44.747Z,50.90
2022-08-05T15:19:58.263Z,49.80
2022-08-05T15:22:27.024Z,50.00
2022-08-05T15:24:56.109Z,50.20
2022-08-05T15:27:26.003Z,50.90
2022-08-05T15:29:56.552Z,50.90
2022-08-05T15:32:27.473Z,50.90
2022-08-05T15:34:56.980Z,50.90
2022-08-05T15:38:31.820Z,51.00
2022-08-05T15:41:00.732Z,51.00
2022-08-05T15:43:12.506Z,50.20
2022-08-05T15:45:47.763Z,51.50
2022-08-05T15:48:28.255Z,50.70
2022-08-05T15:50:56.589Z,51.00
2022-08-05T15:53:26.495Z,52.30
2022-08-05T15:56:09.144Z,51.60
2022-08-05T15:58:43.616Z,52.40
2022-08-05T16:01:16.274Z,52.60
2022-08-05T16:03:48.196Z,52.70
2022-08-05T16:06:20.254Z,51.70
2022-08-05T16:08:51.234Z,52.70
2022-08-05T16:11:40.210Z,52.10
2022-08-05T16:14:17.431Z,51.60
2022-08-05T16:16:47.147Z,51.90
2022-08-05T16:19:25.606Z,52.20
2022-08-05T16:22:03.951Z,52.70
2022-08-05T16:24:39.518Z,51.80
2022-08-05T16:27:09.073Z,52.80
2022-08-05T16:29:38.555Z,53.00
2022-08-05T16:32:09.795Z,52.80
2022-08-05T16:34:39.313Z,52.40
2022-08-05T16:38:15.709Z,52.70
2022-08-05T16:40:05.219Z,52.00
2022-08-05T16:42:36.089Z,52.80
2022-08-05T16:46:02.955Z,52.60
2022-08-05T16:47:58.472Z,53.00
2022-08-05T16:50:30.428Z,53.50
2022-08-05T16:53:00.367Z,52.60
2022-08-05T16:55:46.906Z,52.90
2022-08-05T16:58:15.536Z,53.40
2022-08-05T17:00:49.785Z,53.90
2022-08-05T17:03:19.586Z,54.50
2022-08-05T17:05:53.711Z,54.20
2022-08-05T17:08:35.841Z,54.60
2022-08-05T17:11:12.735Z,56.00
2022-08-05T17:13:45.390Z,55.50
2022-08-05T17:16:33.267Z,56.00
2022-08-05T17:19:02.219Z,57.20
2022-08-05T17:21:35.805Z,57.10
2022-08-05T17:24:14.352Z,57.40
2022-08-05T17:26:55.391Z,57.50
2022-08-05T17:29:33.813Z,57.80
2022-08-05T17:32:26.334Z,58.20
2022-08-05T17:34:54.566Z,58.50
2022-08-05T17:37:39.647Z,58.40
2022-08-05T17:40:12.445Z,59.00
2022-08-05T17:42:43.175Z,60.70
2022-08-05T17:45:21.075Z,60.10
2022-08-05T17:47:54.609Z,61.10
2022-08-05T17:50:28.020Z,61.00
2022-08-05T17:52:59.001Z,61.20
2022-08-05T17:55:37.931Z,60.90
2022-08-05T17:58:14.434Z,63.30
2022-08-05T18:00:50.956Z,64.00
2022-08-05T18:03:59.254Z,63.70
2022-08-05T18:06:12.341Z,63.70
2022-08-05T18:08:45.920Z,64.70
2022-08-05T18:11:24.627Z,63.70
2022-08-05T18:14:03.379Z,63.20
2022-08-05T18:16:32.894Z,61.90
2022-08-05T18:19:03.247Z,61.80
2022-08-05T18:22:08.396Z,61.40
2022-08-05T18:24:21.010Z,61.30
2022-08-05T18:26:49.280Z,61.60
2022-08-05T18:29:17.598Z,62.10
2022-08-05T18:32:06.935Z,63.10
2022-08-05T18:34:42.929Z,63.80
2022-08-05T18:37:12.400Z,66.60
2022-08-05T18:40:29.859Z,66.60
2022-08-05T18:42:29.301Z,66.60
2022-08-05T18:44:57.964Z,67.00
2022-08-05T18:47:28.368Z,68.00
2022-08-05T18:50:18.328Z,68.80
2022-08-05T18:52:51.263Z,69.40
2022-08-05T18:55:21.714Z,69.60
2022-08-05T18:57:53.422Z,70.20
2022-08-05T19:00:31.134Z,70.80
2022-08-05T19:03:03.976Z,71.00
2022-08-05T19:06:12.347Z,71.50
2022-08-05T19:08:30.577Z,71.80
2022-08-05T19:11:04.680Z,72.30
2022-08-05T19:13:35.920Z,72.50
2022-08-05T19:16:24.917Z,72.70
2022-08-05T19:18:56.610Z,73.60
2022-08-05T19:21:34.143Z,74.60
2022-08-05T19:24:07.922Z,75.00
2022-08-05T19:26:54.263Z,75.80
2022-08-05T19:29:35.461Z,76.90
2022-08-05T19:32:05.512Z,77.70
2022-08-05T19:34:36.828Z,77.80
2022-08-05T19:37:08.264Z,78.00
2022-08-05T19:39:45.799Z,80.20
2022-08-05T19:42:35.581Z,80.50
2022-08-05T19:45:06.447Z,81.60
2022-08-05T19:47:37.677Z,80.80
2022-08-05T19:50:07.850Z,82.20
2022-08-05T19:52:41.463Z,82.40
2022-08-05T19:56:14.451Z,84.50
2022-08-05T19:58:19.484Z,85.00
2022-08-05T20:00:47.491Z,85.30
2022-08-05T20:03:16.068Z,86.60
2022-08-05T20:05:50.096Z,85.80
2022-08-05T20:08:24.580Z,86.40
2022-08-05T20:10:53.269Z,86.10
2022-08-05T20:13:30.116Z,85.40
2022-08-05T20:16:10.954Z,85.40
2022-08-05T20:18:39.580Z,86.10
2022-08-05T20:21:08.839Z,85.30
2022-08-05T20:23:50.918Z,85.70
2022-08-05T20:26:23.401Z,85.80
2022-08-05T20:28:55.757Z,86.00
2022-08-05T20:31:36.713Z,86.10
2022-08-05T20:34:11.616Z,86.20
2022-08-05T20:36:43.256Z,86.20
2022-08-05T20:39:16.627Z,86.60
2022-08-05T20:41:46.579Z,86.50
2022-08-05T20:44:29.563Z,87.00
2022-08-05T20:46:59.394Z,88.00
2022-08-05T20:49:28.275Z,87.30
2022-08-05T20:51:57.855Z,86.70
2022-08-05T20:54:55.379Z,86.90
2022-08-05T20:57:24.610Z,87.20
2022-08-05T21:00:19.590Z,86.90
2022-08-05T21:03:00.077Z,86.50
2022-08-05T21:05:48.250Z,86.80
2022-08-05T21:08:17.759Z,86.30
2022-08-05T21:10:48.851Z,87.20
2022-08-05T21:13:20.363Z,86.90
2022-08-05T21:15:55.566Z,87.50
2022-08-05T21:18:23.630Z,87.70
2022-08-05T21:20:52.966Z,88.40
2022-08-05T21:23:21.037Z,87.80
2022-08-05T21:25:52.090Z,87.30
2022-08-05T21:28:23.852Z,87.40
2022-08-05T21:30:52.151Z,87.40
2022-08-05T21:33:22.366Z,87.50
2022-08-05T21:35:58.236Z,87.30
2022-08-05T21:38:27.770Z,87.60
2022-08-05T21:40:57.690Z,87.60
2022-08-05T21:43:26.226Z,88.30
2022-08-05T21:46:01.701Z,88.40
2022-08-05T21:48:32.239Z,89.60
2022-08-05T21:51:01.503Z,88.70
2022-08-05T21:53:29.637Z,88.80
2022-08-05T21:56:09.769Z,88.90
2022-08-05T21:58:57.178Z,89.00
2022-08-05T22:01:26.488Z,89.30
2022-08-05T22:03:55.223Z,89.30
2022-08-05T22:06:37.080Z,89.80
2022-08-05T22:09:14.667Z,89.80
2022-08-05T22:11:46.750Z,90.00
2022-08-05T22:14:33.136Z,90.00
2022-08-05T22:17:05.361Z,90.20
2022-08-05T22:20:00.423Z,90.40
2022-08-05T22:22:27.977Z,90.20
2022-08-05T22:25:18.249Z,90.40
2022-08-05T22:28:04.943Z,90.50
2022-08-05T22:30:44.114Z,90.70
2022-08-05T22:33:57.820Z,90.60
2022-08-05T22:36:14.461Z,90.70
2022-08-05T22:38:48.042Z,90.80
2022-08-05T22:41:26.262Z,90.80
2022-08-05T22:44:07.903Z,90.70
2022-08-05T22:46:39.502Z,90.80
2022-08-05T22:49:08.130Z,91.00
2022-08-05T22:52:07.308Z,91.10
2022-08-05T22:54:39.916Z,91.10
2022-08-05T22:57:17.031Z,91.00
2022-08-05T22:59:51.854Z,91.10
2022-08-05T23:02:29.226Z,91.50
2022-08-05T23:05:02.095Z,91.60
2022-08-05T23:07:44.762Z,91.50
2022-08-05T23:10:14.012Z,91.80
2022-08-05T23:12:43.783Z,91.80
2022-08-05T23:15:13.630Z,91.80
2022-08-05T23:18:00.903Z,91.90
2022-08-05T23:20:32.297Z,92.10
2022-08-05T23:23:00.767Z,92.10
2022-08-05T23:25:54.747Z,92.10
2022-08-05T23:28:22.731Z,92.10
2022-08-05T23:30:54.656Z,92.00
2022-08-05T23:34:02.782Z,92.10
2022-08-05T23:36:13.764Z,92.20
2022-08-05T23:38:43.027Z,92.50
2022-08-05T23:41:12.269Z,92.70
2022-08-05T23:44:05.623Z,92.90
2022-08-05T23:46:31.118Z,92.80
2022-08-05T23:49:01.949Z,93.00
2022-08-05T23:52:01.487Z,92.80
2022-08-05T23:54:36.223Z,92.90
2022-08-05T23:57:07.612Z,92.70
